Gile, Wisconsin
Current Conditions -  °F | °C
As of 5:15 PM on Friday 19 Dec 2014 (Local Time) from KIWD Reporting Station
Overcast Overcast  
Wind Chill: 17°   Ceiling: 1000
Heat Index: 23°   Visibility: 10mi
Dew Point: 19°   Wind: 5mph
Humidity: 86%   Direction: 200°SSW
Pressure: 30.19"   Gusts: NA
Location:  46.43°N, 90.22°W
Report Text: KIWD 192315Z AUTO 20004KT 10SM OVC010 M05/M07 A3019 RMK AO1
Loading
Personal Weather Stations






























Interactive Weather Map New forecast layout! Learn more

10-Day Weather Forecast

Advertisements
Track Severe Weather on mobile